Impacts TAF Board INFO
FOR SITUATIONAL AWARENESS. NOT TO BE USED FOR FLIGHT PLANNING PURPOSES.
IDs:

KMOB - Mobile Rgnl, AL, US

Issued at 0003 UTC 23 Feb 2018
Updated at 0008 UTC 23 Feb 2018
Potential Impact None Slight Moderate High
Time<<23/13Z 23/14Z 23/15Z 23/16Z 23/17Z 23/18Z 23/19Z 23/20Z 23/21Z 23/22Z 23/23Z 24/00Z 24/01Z>>
Type PRVL PRVL PRVL PRVL PRVL PRVL PRVL PRVL PRVL PRVL PRVL
VIS 0.5 0.5 0.5 0.5 0.5 0.5 0.5 0.5 0.5 0.5 0.5
CIG 2 2 2 2 2 2 2 2 2 2 2
Cover OVX OVX OVX OVX OVX OVX OVX OVX OVX OVX OVX
FltCat LIFR LIFR LIFR LIFR LIFR LIFR LIFR LIFR LIFR LIFR LIFR
WX FG FG FG FG FG FG FG FG FG FG FG
WDir 130 130 130 130 130 130 130 130 130 130 130
WSpd 4 4 4 4 4 4 4 4 4 4 4
WGst -- -- -- -- -- -- -- -- -- -- --

Raw TAF
KMOB 230003Z 2300/2324 16007KT P6SM BKN040
  FM230400 12005KT 2SM BR BKN003
  FM230600 13004KT 1/2SM FG VV002
  TEMPO 2306/2310 1/4SM FG


METAR Board
Radar Display
Forecast Discussion

FOR SITUATIONAL AWARENESS. NOT TO BE USED FOR FLIGHT PLANNING PURPOSES.